Pu Ze — V3YX4 — position and weather

sailwx.info

Track history (hours):
 
Tides and Currents Weather Stations Pressure Air Temp Water Temp Dewpoint Dewpoint Depression Visibility Wind Speed Wind Dir Waves Ship Positions

Pu Ze

Last reported at 2018-Jan-18 20:53 UTC. Time now 2018-Jan-19 01:13 UTC.
Position N 34°29' E 138°07'.

Length 76 m; draft 4.7 m.

Type: Cargo ship. MMSI: 312305000.

Date/timePositionNaut miles runAvg speedWind from/ knotsBaromVisibWave heightAir tempDewpointWater temp
2018-Jan-18 20:53N 34°29' E 138°07'13 9.0
2018-Jan-18 19:28N 34°30' E 138°22'7 9.6
2018-Jan-18 18:43N 34°30' E 138°31'310.0
2018-Jan-18 18:25N 34°31' E 138°35'5 9.8
2018-Jan-18 17:53N 34°33' E 138°41'6 9.5
2018-Jan-18 17:18N 34°34' E 138°47'6 9.4
2018-Jan-18 16:38N 34°35' E 138°55'1 9.1
2018-Jan-18 16:29N 34°36' E 138°56'5 9.4
2018-Jan-18 16:00N 34°39' E 139°00'5 9.3
2018-Jan-18 15:29N 34°42' E 139°05'4 9.2
2018-Jan-18 15:00N 34°44' E 139°09'4 8.8
2018-Jan-18 14:30N 34°47' E 139°13'5 8.9
2018-Jan-18 13:58N 34°51' E 139°17'6 9.0
2018-Jan-18 13:17N 34°55' E 139°22'2 8.7
2018-Jan-18 13:00N 34°57' E 139°25'4 9.0
2018-Jan-18 12:30N 34°59' E 139°29'4 9.0
2018-Jan-18 12:00N 35°02' E 139°34'5 9.3
2018-Jan-18 11:30N 35°05' E 139°38'510.0
2018-Jan-18 11:00N 35°08' E 139°43'510.4
2018-Jan-18 10:30N 35°12' E 139°46'510.5
2018-Jan-18 10:00N 35°17' E 139°45'510.6
2018-Jan-18 09:30N 35°23' E 139°42'510.5
2018-Jan-18 09:01N 35°27' E 139°46'4 7.2
2018-Jan-18 08:30N 35°30' E 139°46'1 1.1
2018-Jan-18 08:00N 35°31' E 139°45'0 0.0
2018-Jan-18 07:30N 35°31' E 139°45'0 0.0
2018-Jan-18 07:00N 35°31' E 139°45'0 0.0
2018-Jan-18 06:30N 35°31' E 139°45'0 0.0
2018-Jan-18 06:00N 35°31' E 139°45'0 0.0
2018-Jan-18 05:30N 35°31' E 139°45'0 0.0
2018-Jan-18 05:00N 35°31' E 139°45'0 0.0
2018-Jan-18 04:30N 35°31' E 139°45'0 0.0
2018-Jan-18 03:57N 35°31' E 139°45'0 0.0
2018-Jan-18 03:30N 35°31' E 139°45'0 0.0
2018-Jan-18 03:00N 35°31' E 139°45'0 0.0
2018-Jan-18 02:30N 35°31' E 139°45'0 0.0
2018-Jan-18 02:00N 35°31' E 139°45'0 0.0
2018-Jan-18 01:30N 35°31' E 139°45'0 0.0
2018-Jan-18 01:00N 35°31' E 139°45'0 0.0
2018-Jan-18 00:00N 35°31' E 139°45'0 0.1
2018-Jan-17 23:57N 35°31' E 139°45'  
2018-Jan-12 09:51N 41°28' E 141°30'511.5
2018-Jan-12 09:26N 41°30' E 141°24'511.5
2018-Jan-12 09:00N 41°32' E 141°18'611.9
2018-Jan-12 08:30N 41°33' E 141°10'611.5
2018-Jan-12 08:00N 41°35' E 141°02'611.2
2018-Jan-12 07:30N 41°36' E 140°55'510.8
2018-Jan-12 07:00N 41°33' E 140°48'611.7
2018-Jan-12 06:30N 41°30' E 140°42'611.9
2018-Jan-12 05:59N 41°26' E 140°35'2810.2
2018-Jan-12 03:14N 41°05' E 140°11'6 9.8
2018-Jan-12 02:38N 41°00' E 140°07'2 9.5
2018-Jan-12 02:28N 40°59' E 140°06'  
Track history (hours):
 
Tides and Currents Weather Stations Pressure Air Temp Water Temp Dewpoint Dewpoint Depression Visibility Wind Speed Wind Dir Waves Ship Positions

Pu Ze

Last reported at 2018-Jan-18 20:53 UTC. Time now 2018-Jan-19 01:13 UTC.
Position N 34°29' E 138°07'.

Length 76 m; draft 4.7 m.

Type: Cargo ship. MMSI: 312305000.

Date/timePositionNaut miles runAvg speedWind from/ knotsBaromVisibWave heightAir tempDewpointWater temp
2018-Jan-18 20:53N 34°29' E 138°07'13 9.0
2018-Jan-18 19:28N 34°30' E 138°22'7 9.6
2018-Jan-18 18:43N 34°30' E 138°31'310.0
2018-Jan-18 18:25N 34°31' E 138°35'5 9.8
2018-Jan-18 17:53N 34°33' E 138°41'6 9.5
2018-Jan-18 17:18N 34°34' E 138°47'6 9.4
2018-Jan-18 16:38N 34°35' E 138°55'1 9.1
2018-Jan-18 16:29N 34°36' E 138°56'5 9.4
2018-Jan-18 16:00N 34°39' E 139°00'5 9.3
2018-Jan-18 15:29N 34°42' E 139°05'4 9.2
2018-Jan-18 15:00N 34°44' E 139°09'4 8.8
2018-Jan-18 14:30N 34°47' E 139°13'5 8.9
2018-Jan-18 13:58N 34°51' E 139°17'6 9.0
2018-Jan-18 13:17N 34°55' E 139°22'2 8.7
2018-Jan-18 13:00N 34°57' E 139°25'4 9.0
2018-Jan-18 12:30N 34°59' E 139°29'4 9.0
2018-Jan-18 12:00N 35°02' E 139°34'5 9.3
2018-Jan-18 11:30N 35°05' E 139°38'510.0
2018-Jan-18 11:00N 35°08' E 139°43'510.4
2018-Jan-18 10:30N 35°12' E 139°46'510.5
2018-Jan-18 10:00N 35°17' E 139°45'510.6
2018-Jan-18 09:30N 35°23' E 139°42'510.5
2018-Jan-18 09:01N 35°27' E 139°46'4 7.2
2018-Jan-18 08:30N 35°30' E 139°46'1 1.1
2018-Jan-18 08:00N 35°31' E 139°45'0 0.0
2018-Jan-18 07:30N 35°31' E 139°45'0 0.0
2018-Jan-18 07:00N 35°31' E 139°45'0 0.0
2018-Jan-18 06:30N 35°31' E 139°45'0 0.0
2018-Jan-18 06:00N 35°31' E 139°45'0 0.0
2018-Jan-18 05:30N 35°31' E 139°45'0 0.0
2018-Jan-18 05:00N 35°31' E 139°45'0 0.0
2018-Jan-18 04:30N 35°31' E 139°45'0 0.0
2018-Jan-18 03:57N 35°31' E 139°45'0 0.0
2018-Jan-18 03:30N 35°31' E 139°45'0 0.0
2018-Jan-18 03:00N 35°31' E 139°45'0 0.0
2018-Jan-18 02:30N 35°31' E 139°45'0 0.0
2018-Jan-18 02:00N 35°31' E 139°45'0 0.0
2018-Jan-18 01:30N 35°31' E 139°45'0 0.0
2018-Jan-18 01:00N 35°31' E 139°45'0 0.0
2018-Jan-18 00:00N 35°31' E 139°45'0 0.1
2018-Jan-17 23:57N 35°31' E 139°45'  
2018-Jan-12 09:51N 41°28' E 141°30'511.5
2018-Jan-12 09:26N 41°30' E 141°24'511.5
2018-Jan-12 09:00N 41°32' E 141°18'611.9
2018-Jan-12 08:30N 41°33' E 141°10'611.5
2018-Jan-12 08:00N 41°35' E 141°02'611.2
2018-Jan-12 07:30N 41°36' E 140°55'510.8
2018-Jan-12 07:00N 41°33' E 140°48'611.7
2018-Jan-12 06:30N 41°30' E 140°42'611.9
2018-Jan-12 05:59N 41°26' E 140°35'2810.2
2018-Jan-12 03:14N 41°05' E 140°11'6 9.8
2018-Jan-12 02:38N 41°00' E 140°07'2 9.5
2018-Jan-12 02:28N 40°59' E 140°06'  

Dump ship's entire track history